createdAt,value
2023-04-28T00:00:59.044Z,15.40
2023-04-28T00:02:00.889Z,15.40
2023-04-28T00:03:02.861Z,15.50
2023-04-28T00:04:05.249Z,15.50
2023-04-28T00:05:07.582Z,15.50
2023-04-28T00:06:09.860Z,15.50
2023-04-28T00:07:11.522Z,15.50
2023-04-28T00:08:13.161Z,15.50
2023-04-28T00:09:14.838Z,15.50
2023-04-28T00:10:16.789Z,15.50
2023-04-28T00:11:18.844Z,15.50
2023-04-28T00:12:20.691Z,15.50
2023-04-28T00:13:24.779Z,15.50
2023-04-28T00:14:26.817Z,15.50
2023-04-28T00:15:28.631Z,15.50
2023-04-28T00:16:30.579Z,15.50
2023-04-28T00:17:34.435Z,15.50
2023-04-28T00:18:38.320Z,15.50
2023-04-28T00:19:40.424Z,15.60
2023-04-28T00:20:42.088Z,15.60
2023-04-28T00:21:43.727Z,15.50
2023-04-28T00:22:46.828Z,15.60
2023-04-28T00:23:48.467Z,15.50
2023-04-28T00:24:50.440Z,15.60
2023-04-28T00:25:52.790Z,15.60
2023-04-28T00:26:54.438Z,15.60
2023-04-28T00:27:56.101Z,15.60
2023-04-28T00:28:57.742Z,15.60
2023-04-28T00:29:59.797Z,15.60
2023-04-28T00:31:02.055Z,15.60
2023-04-28T00:32:13.229Z,15.60
2023-04-28T00:33:15.063Z,15.60
2023-04-28T00:34:17.034Z,15.70
2023-04-28T00:35:19.573Z,15.60
2023-04-28T00:36:21.568Z,15.60
2023-04-28T00:37:23.340Z,15.60
2023-04-28T00:38:25.900Z,15.60
2023-04-28T00:39:27.860Z,15.60
2023-04-28T00:40:37.155Z,15.60
2023-04-28T00:41:39.917Z,15.50
2023-04-28T00:42:42.446Z,15.50
2023-04-28T00:43:45.877Z,15.50
2023-04-28T00:44:47.902Z,15.50
2023-04-28T00:45:50.567Z,15.50
2023-04-28T00:46:52.299Z,15.50
2023-04-28T00:47:55.650Z,15.60
2023-04-28T00:49:00.716Z,15.60
2023-04-28T00:50:04.349Z,15.60
2023-04-28T00:51:07.492Z,15.60
2023-04-28T00:52:10.444Z,15.60
2023-04-28T00:53:13.208Z,15.60
2023-04-28T00:54:15.429Z,15.60
2023-04-28T00:55:18.310Z,15.60
2023-04-28T00:56:21.005Z,15.60
2023-04-28T00:57:23.172Z,15.60
2023-04-28T00:58:25.370Z,15.60
2023-04-28T00:59:27.082Z,15.60
2023-04-28T01:00:29.192Z,15.50
2023-04-28T01:01:36.497Z,15.60
2023-04-28T01:02:39.436Z,15.50
2023-04-28T01:03:41.861Z,15.60
2023-04-28T01:04:47.917Z,15.50
2023-04-28T01:05:50.057Z,15.60
2023-04-28T01:06:53.697Z,15.50
2023-04-28T01:07:56.169Z,15.50
2023-04-28T01:08:58.192Z,15.60
2023-04-28T01:10:00.245Z,15.50
2023-04-28T01:11:02.253Z,15.50
2023-04-28T01:12:04.456Z,15.50
2023-04-28T01:13:06.202Z,15.50
2023-04-28T01:14:07.937Z,15.60
2023-04-28T01:15:20.270Z,15.60
2023-04-28T01:16:22.172Z,15.60
2023-04-28T01:17:24.340Z,15.60
2023-04-28T01:18:26.299Z,15.60
2023-04-28T01:19:29.688Z,15.50
2023-04-28T01:20:31.393Z,15.50
2023-04-28T01:21:33.900Z,15.50
2023-04-28T01:22:35.719Z,15.50
2023-04-28T01:23:38.389Z,15.50
2023-04-28T01:24:40.135Z,15.50
2023-04-28T01:25:42.713Z,15.50
2023-04-28T01:26:45.237Z,15.50
2023-04-28T01:27:46.879Z,15.50
2023-04-28T01:28:48.561Z,15.60
2023-04-28T01:29:50.215Z,15.60
2023-04-28T01:30:51.878Z,15.60
2023-04-28T01:31:53.599Z,15.60
2023-04-28T01:32:55.328Z,15.60
2023-04-28T01:33:57.451Z,15.60
2023-04-28T01:34:59.107Z,15.60
2023-04-28T01:36:00.756Z,15.60
2023-04-28T01:37:02.431Z,15.60
2023-04-28T01:38:04.254Z,15.60
2023-04-28T01:39:06.173Z,15.60
2023-04-28T01:40:08.382Z,15.60
2023-04-28T01:41:10.056Z,15.50
2023-04-28T01:42:11.888Z,15.50
2023-04-28T01:43:13.563Z,15.50
2023-04-28T01:44:15.356Z,15.50
2023-04-28T01:45:17.194Z,15.60
2023-04-28T01:46:19.016Z,15.60
2023-04-28T01:47:21.069Z,15.60
2023-04-28T01:48:22.740Z,15.60
2023-04-28T01:49:24.527Z,15.60
2023-04-28T01:50:26.185Z,15.60
2023-04-28T01:51:27.986Z,15.60
2023-04-28T01:53:44.517Z,15.60
2023-04-28T01:54:46.250Z,15.60
2023-04-28T01:55:47.860Z,15.60
2023-04-28T01:56:49.450Z,15.60
2023-04-28T01:57:51.439Z,15.60
2023-04-28T01:58:53.337Z,15.60
2023-04-28T01:59:55.640Z,15.60
2023-04-28T02:00:57.294Z,15.60
2023-04-28T02:01:59.077Z,15.60
2023-04-28T02:03:01.276Z,15.60
2023-04-28T02:04:03.293Z,15.60
2023-04-28T02:05:05.496Z,15.60
2023-04-28T02:06:07.224Z,15.60
2023-04-28T02:07:08.846Z,15.60
2023-04-28T02:08:10.694Z,15.60
2023-04-28T02:09:12.324Z,15.50
2023-04-28T02:10:14.025Z,15.50
2023-04-28T02:11:15.984Z,15.50
2023-04-28T02:12:17.630Z,15.50
2023-04-28T02:13:19.338Z,15.50
2023-04-28T02:14:20.982Z,15.50
2023-04-28T02:15:22.763Z,15.50
2023-04-28T02:16:24.805Z,15.50
2023-04-28T02:17:44.536Z,15.50
2023-04-28T02:18:46.370Z,15.50
2023-04-28T02:19:48.196Z,15.50
2023-04-28T02:20:49.899Z,15.50
2023-04-28T02:21:51.782Z,15.50
2023-04-28T02:22:53.659Z,15.50
2023-04-28T02:23:55.362Z,15.50
2023-04-28T02:24:57.565Z,15.50
2023-04-28T02:26:03.910Z,15.50
2023-04-28T02:27:06.441Z,15.60
2023-04-28T02:28:08.165Z,15.50
2023-04-28T02:29:10.072Z,15.60
2023-04-28T02:30:12.025Z,15.60
2023-04-28T02:31:14.156Z,15.60
2023-04-28T02:32:16.216Z,15.60
2023-04-28T02:33:17.909Z,15.60
2023-04-28T02:34:19.645Z,15.60
2023-04-28T02:35:21.316Z,15.60
2023-04-28T02:36:23.277Z,15.60
2023-04-28T02:37:25.028Z,15.60
2023-04-28T02:38:27.407Z,15.60
2023-04-28T02:39:30.523Z,15.60
2023-04-28T02:40:32.191Z,15.60
2023-04-28T02:41:34.890Z,15.60
2023-04-28T02:42:36.658Z,15.60
2023-04-28T02:43:38.401Z,15.60
2023-04-28T02:44:40.510Z,15.60
2023-04-28T02:45:42.183Z,15.60
2023-04-28T02:46:44.013Z,15.60
2023-04-28T02:47:45.764Z,15.50
2023-04-28T02:48:47.450Z,15.50
2023-04-28T02:49:49.147Z,15.50
2023-04-28T02:50:51.183Z,15.50
2023-04-28T02:51:53.040Z,15.50
2023-04-28T02:52:54.719Z,15.40
2023-04-28T02:53:56.629Z,15.40
2023-04-28T02:54:58.375Z,15.40
2023-04-28T02:56:02.085Z,15.40
2023-04-28T02:57:04.852Z,15.40
2023-04-28T02:58:06.543Z,15.50
2023-04-28T02:59:08.385Z,15.40
2023-04-28T03:00:10.813Z,15.40
2023-04-28T03:01:12.544Z,15.40
2023-04-28T03:02:14.822Z,15.40
2023-04-28T03:03:16.868Z,15.40
2023-04-28T03:04:19.711Z,15.40
2023-04-28T03:05:21.803Z,15.40
2023-04-28T03:06:23.652Z,15.50
2023-04-28T03:07:25.522Z,15.50
2023-04-28T03:08:27.569Z,15.50
2023-04-28T03:09:29.638Z,15.50
2023-04-28T03:10:31.831Z,15.50
2023-04-28T03:11:33.638Z,15.50
2023-04-28T03:12:35.737Z,15.50
2023-04-28T03:13:37.620Z,15.50
2023-04-28T03:14:41.583Z,15.60
2023-04-28T03:15:43.328Z,15.60
2023-04-28T03:16:45.515Z,15.60
2023-04-28T03:17:48.792Z,15.60
2023-04-28T03:18:51.417Z,15.60
2023-04-28T03:19:53.444Z,15.60
2023-04-28T03:20:55.396Z,15.60
2023-04-28T03:21:57.206Z,15.60
2023-04-28T03:22:58.934Z,15.60
2023-04-28T03:24:01.329Z,15.60
2023-04-28T03:25:05.700Z,15.60
2023-04-28T03:26:08.082Z,15.60
2023-04-28T03:27:10.209Z,15.60
2023-04-28T03:28:12.083Z,15.60
2023-04-28T03:29:14.097Z,15.50
2023-04-28T03:30:15.987Z,15.50
2023-04-28T03:31:17.770Z,15.50
2023-04-28T03:32:19.905Z,15.50
2023-04-28T03:33:22.028Z,15.50
2023-04-28T03:38:56.417Z,15.40
2023-04-28T03:39:58.160Z,15.30
2023-04-28T03:41:00.469Z,15.30
2023-04-28T03:42:02.792Z,15.30
2023-04-28T03:43:05.040Z,15.30
2023-04-28T03:44:06.995Z,15.20
2023-04-28T03:45:09.572Z,15.20
2023-04-28T03:46:11.835Z,15.20
2023-04-28T03:47:15.476Z,15.20
2023-04-28T03:48:17.365Z,15.20
2023-04-28T03:49:19.653Z,15.20
2023-04-28T03:50:21.565Z,15.20
2023-04-28T03:51:23.444Z,15.30
2023-04-28T03:52:26.122Z,15.20
2023-04-28T03:53:28.009Z,15.20
2023-04-28T03:54:30.033Z,15.20
2023-04-28T03:55:32.090Z,15.20
2023-04-28T03:56:34.355Z,15.20
2023-04-28T03:57:36.512Z,15.20
2023-04-28T03:58:38.285Z,15.20
2023-04-28T03:59:40.162Z,15.20
2023-04-28T04:00:41.935Z,15.20
2023-04-28T04:01:43.891Z,15.20
2023-04-28T04:02:46.071Z,15.20
2023-04-28T04:03:48.173Z,15.20
2023-04-28T04:04:50.231Z,15.20
2023-04-28T04:08:08.357Z,15.20
2023-04-28T04:09:10.400Z,15.20
2023-04-28T04:10:12.120Z,15.20
2023-04-28T04:11:21.482Z,15.20
2023-04-28T04:16:55.635Z,15.10
2023-04-28T04:17:57.576Z,15.10
2023-04-28T04:18:59.262Z,15.10
2023-04-28T04:20:00.970Z,15.10
2023-04-28T04:21:03.366Z,15.10
2023-04-28T04:22:05.433Z,15.10
2023-04-28T04:23:07.368Z,15.10
2023-04-28T04:24:09.455Z,15.10
2023-04-28T04:25:11.121Z,15.10
2023-04-28T04:26:13.343Z,15.10
2023-04-28T04:27:15.160Z,15.10
2023-04-28T04:28:17.210Z,15.10
2023-04-28T04:29:18.862Z,15.10
2023-04-28T04:30:20.835Z,15.10
2023-04-28T04:33:38.538Z,15.10
2023-04-28T04:34:40.408Z,15.10
2023-04-28T04:35:42.080Z,15.20
2023-04-28T04:36:44.213Z,15.20
2023-04-28T04:37:45.985Z,15.20
2023-04-28T04:38:47.664Z,15.20
2023-04-28T04:39:49.289Z,15.20
2023-04-28T04:40:51.103Z,15.20
2023-04-28T04:41:53.045Z,15.20
2023-04-28T04:42:54.953Z,15.20
2023-04-28T04:43:56.818Z,15.20
2023-04-28T04:44:58.649Z,15.20
2023-04-28T04:46:00.799Z,15.20
2023-04-28T04:47:02.564Z,15.20
2023-04-28T04:48:04.732Z,15.20
2023-04-28T04:49:06.408Z,15.20
2023-04-28T04:50:09.479Z,15.20
2023-04-28T04:51:11.530Z,15.20
2023-04-28T04:52:13.100Z,15.20
2023-04-28T04:53:16.395Z,15.30
2023-04-28T04:54:18.539Z,15.20
2023-04-28T04:55:20.299Z,15.20
2023-04-28T04:56:22.741Z,15.30
2023-04-28T04:57:24.347Z,15.30
2023-04-28T04:58:26.355Z,15.30
2023-04-28T04:59:28.478Z,15.30
2023-04-28T05:00:30.308Z,15.30
2023-04-28T05:01:31.979Z,15.30
2023-04-28T05:02:33.814Z,15.30
2023-04-28T05:03:35.701Z,15.30
2023-04-28T05:04:37.731Z,15.30
2023-04-28T05:05:40.080Z,15.30
2023-04-28T05:06:42.063Z,15.30
2023-04-28T05:07:43.786Z,15.30
2023-04-28T05:08:45.364Z,15.40
2023-04-28T05:09:47.178Z,15.30
2023-04-28T05:10:49.047Z,15.40
2023-04-28T05:11:51.180Z,15.30
2023-04-28T05:12:52.848Z,15.30
2023-04-28T05:13:54.531Z,15.30
2023-04-28T05:14:56.431Z,15.30
2023-04-28T05:15:58.196Z,15.30
2023-04-28T05:17:00.013Z,15.20
2023-04-28T05:18:08.902Z,15.20
2023-04-28T05:19:10.668Z,15.20
2023-04-28T05:20:12.970Z,15.20
2023-04-28T05:21:16.200Z,15.20
2023-04-28T05:22:17.770Z,15.20
2023-04-28T05:23:19.353Z,15.20
2023-04-28T05:24:24.329Z,15.20
2023-04-28T05:25:26.198Z,15.20
2023-04-28T05:26:27.929Z,15.30
2023-04-28T05:27:29.521Z,15.30
2023-04-28T05:28:31.623Z,15.30
2023-04-28T05:29:33.207Z,15.20
2023-04-28T05:30:35.062Z,15.20
2023-04-28T05:31:36.700Z,15.20
2023-04-28T05:32:38.959Z,15.20
2023-04-28T05:33:40.677Z,15.20
2023-04-28T05:34:42.345Z,15.30
2023-04-28T05:35:44.054Z,15.30
2023-04-28T05:36:46.038Z,15.30
2023-04-28T05:37:47.728Z,15.30
2023-04-28T05:38:49.478Z,15.30
2023-04-28T05:39:51.118Z,15.30
2023-04-28T05:40:52.695Z,15.30
2023-04-28T05:41:54.353Z,15.30
2023-04-28T05:42:56.280Z,15.30
2023-04-28T05:43:58.011Z,15.30
2023-04-28T05:44:59.630Z,15.30
2023-04-28T05:46:01.597Z,15.30
2023-04-28T05:47:03.334Z,15.30
2023-04-28T05:48:05.396Z,15.30
2023-04-28T05:49:07.072Z,15.40
2023-04-28T05:50:09.237Z,15.30
2023-04-28T05:51:11.247Z,15.30
2023-04-28T05:52:12.848Z,15.30
2023-04-28T05:53:14.475Z,15.30
2023-04-28T05:54:16.277Z,15.30
2023-04-28T05:55:18.302Z,15.30
2023-04-28T05:56:20.915Z,15.30
2023-04-28T05:57:22.724Z,15.30
2023-04-28T05:58:24.323Z,15.30
2023-04-28T05:59:25.952Z,15.20
2023-04-28T06:00:27.632Z,15.20
2023-04-28T06:01:29.261Z,15.20
2023-04-28T06:02:31.807Z,15.20
2023-04-28T06:03:33.791Z,15.20
2023-04-28T06:04:35.977Z,15.20
2023-04-28T06:05:38.212Z,15.20
2023-04-28T06:06:40.474Z,15.20
2023-04-28T06:07:42.133Z,15.20
2023-04-28T06:08:43.755Z,15.20
2023-04-28T06:09:45.449Z,15.20
2023-04-28T06:10:47.082Z,15.10
2023-04-28T06:11:48.834Z,15.10
2023-04-28T06:12:51.036Z,15.10
2023-04-28T06:13:52.693Z,15.10
2023-04-28T06:14:55.482Z,15.10
2023-04-28T06:15:57.728Z,15.10
2023-04-28T06:17:00.556Z,15.10
2023-04-28T06:18:02.350Z,15.10
2023-04-28T06:19:04.505Z,15.10
2023-04-28T06:20:07.548Z,15.10
2023-04-28T06:21:09.301Z,15.00
2023-04-28T06:22:12.819Z,15.00
2023-04-28T06:23:14.549Z,14.90
2023-04-28T06:24:16.396Z,14.90
2023-04-28T06:25:18.220Z,14.90
2023-04-28T06:26:20.112Z,14.80
2023-04-28T06:27:21.776Z,14.80
2023-04-28T06:28:23.415Z,14.80
2023-04-28T06:29:25.344Z,14.70
2023-04-28T06:30:27.029Z,14.70
2023-04-28T06:31:28.764Z,14.70
2023-04-28T06:32:30.573Z,14.60
2023-04-28T06:33:33.811Z,14.60
2023-04-28T06:34:36.046Z,14.60
2023-04-28T06:35:39.061Z,14.50
2023-04-28T06:36:40.784Z,14.50
2023-04-28T06:37:43.617Z,14.50
2023-04-28T06:38:46.082Z,14.50
2023-04-28T06:39:47.932Z,14.50
2023-04-28T06:40:49.643Z,14.50
2023-04-28T06:41:51.410Z,14.50
2023-04-28T06:42:53.160Z,14.40
2023-04-28T06:43:55.456Z,14.40
2023-04-28T06:44:57.177Z,14.40
2023-04-28T06:45:58.954Z,14.40
2023-04-28T06:47:00.815Z,14.50
2023-04-28T06:48:02.637Z,14.50
2023-04-28T06:49:04.430Z,14.50
2023-04-28T06:50:06.766Z,14.50
2023-04-28T06:51:08.664Z,14.60
2023-04-28T06:52:10.423Z,14.60
2023-04-28T06:53:12.278Z,14.60
2023-04-28T06:54:13.847Z,14.60
2023-04-28T06:55:17.312Z,14.60
2023-04-28T06:56:19.867Z,14.60
2023-04-28T06:57:21.983Z,14.70
2023-04-28T06:58:24.048Z,14.70
2023-04-28T06:59:25.787Z,14.70
2023-04-28T07:00:27.542Z,14.70
2023-04-28T07:01:29.268Z,14.70
2023-04-28T07:02:31.138Z,14.80
2023-04-28T07:03:32.944Z,14.80
2023-04-28T07:04:34.823Z,14.80
2023-04-28T07:05:36.551Z,14.80
2023-04-28T07:06:38.176Z,14.80
2023-04-28T07:07:39.902Z,14.80
2023-04-28T07:08:42.215Z,14.80
2023-04-28T07:09:43.924Z,14.90
2023-04-28T07:10:47.279Z,14.90
2023-04-28T07:11:48.979Z,14.90
2023-04-28T07:12:52.350Z,14.90
2023-04-28T07:13:54.046Z,14.90
2023-04-28T07:14:56.299Z,14.90
2023-04-28T07:16:07.735Z,15.00
2023-04-28T07:17:10.855Z,15.00
2023-04-28T07:18:12.885Z,15.00
2023-04-28T07:19:16.826Z,15.00
2023-04-28T07:20:18.684Z,15.00
2023-04-28T07:21:21.696Z,15.00
2023-04-28T07:22:23.518Z,15.00
2023-04-28T07:23:25.147Z,15.00
2023-04-28T07:24:27.433Z,15.00
2023-04-28T07:25:29.407Z,15.00
2023-04-28T07:26:33.355Z,15.00
2023-04-28T07:27:37.461Z,15.00
2023-04-28T07:28:39.482Z,15.00
2023-04-28T07:29:41.278Z,15.10
2023-04-28T07:30:42.945Z,15.10
2023-04-28T07:31:44.817Z,15.10
2023-04-28T07:32:46.499Z,15.10
2023-04-28T07:33:48.222Z,15.10
2023-04-28T07:34:49.937Z,15.10
2023-04-28T07:35:53.388Z,15.10
2023-04-28T07:36:56.389Z,15.10
2023-04-28T07:37:58.251Z,15.10
2023-04-28T07:39:01.879Z,15.10
2023-04-28T07:40:04.487Z,15.10
2023-04-28T07:41:08.716Z,15.10
2023-04-28T07:42:12.909Z,15.10
2023-04-28T07:43:15.056Z,15.10
2023-04-28T07:44:17.177Z,15.10
2023-04-28T07:45:19.081Z,15.10
2023-04-28T07:46:20.864Z,15.10
2023-04-28T07:47:22.491Z,15.20
2023-04-28T07:48:24.235Z,15.20
2023-04-28T07:49:30.869Z,15.20
2023-04-28T07:50:33.030Z,15.10
2023-04-28T07:51:34.679Z,15.30
2023-04-28T07:52:36.346Z,15.20
2023-04-28T07:53:38.317Z,15.10
2023-04-28T07:54:39.939Z,15.10
2023-04-28T07:55:46.197Z,15.10
2023-04-28T07:56:48.122Z,15.10
2023-04-28T07:57:49.809Z,15.20
2023-04-28T07:58:51.906Z,15.20
2023-04-28T07:59:53.554Z,15.20
2023-04-28T08:00:55.451Z,15.20
2023-04-28T08:01:57.174Z,15.20
2023-04-28T08:02:59.019Z,15.20
2023-04-28T08:04:01.581Z,15.30
2023-04-28T08:05:04.554Z,15.20
2023-04-28T08:06:07.360Z,15.20
2023-04-28T08:07:09.894Z,15.30
2023-04-28T08:08:11.927Z,15.30
2023-04-28T08:09:14.106Z,15.30
2023-04-28T08:10:16.098Z,15.30
2023-04-28T08:11:17.741Z,15.30
2023-04-28T08:12:19.400Z,15.40
2023-04-28T08:13:21.237Z,15.40
2023-04-28T08:14:23.095Z,15.30
2023-04-28T08:15:28.935Z,15.40
2023-04-28T08:16:32.881Z,15.40
2023-04-28T08:17:34.560Z,15.40
2023-04-28T08:18:36.252Z,15.40
2023-04-28T08:19:37.890Z,15.40
2023-04-28T08:20:39.486Z,15.40
2023-04-28T08:21:41.057Z,15.40
2023-04-28T08:22:42.649Z,15.40
2023-04-28T08:23:44.249Z,15.40
2023-04-28T08:24:46.176Z,15.40
2023-04-28T08:25:49.444Z,15.40
2023-04-28T08:26:51.782Z,15.40
2023-04-28T08:27:57.193Z,15.40
2023-04-28T08:28:59.096Z,15.50
2023-04-28T08:30:00.693Z,15.40
2023-04-28T08:31:05.233Z,15.40
2023-04-28T08:32:06.989Z,15.40
2023-04-28T08:33:08.832Z,15.40
2023-04-28T08:34:10.553Z,15.30
2023-04-28T08:35:12.747Z,15.30
2023-04-28T08:36:15.122Z,15.30
2023-04-28T08:37:16.965Z,15.30
2023-04-28T08:38:18.994Z,15.30
2023-04-28T08:39:23.048Z,15.30
2023-04-28T08:40:25.288Z,15.30
2023-04-28T08:41:30.001Z,15.30
2023-04-28T08:42:32.247Z,15.30
2023-04-28T08:43:35.602Z,15.30
2023-04-28T08:44:39.423Z,15.30
2023-04-28T08:45:43.112Z,15.40
2023-04-28T08:46:46.872Z,15.40
2023-04-28T08:47:51.091Z,15.40
2023-04-28T08:49:03.492Z,15.40
2023-04-28T08:50:07.375Z,15.40
2023-04-28T08:51:10.096Z,15.40
2023-04-28T08:52:16.804Z,15.40
2023-04-28T08:53:23.800Z,15.40
2023-04-28T08:54:30.459Z,15.50
2023-04-28T08:55:32.965Z,15.40
2023-04-28T08:56:35.424Z,15.40
2023-04-28T08:57:44.020Z,15.40
2023-04-28T08:58:45.915Z,15.30
2023-04-28T08:59:47.956Z,15.30
2023-04-28T09:00:49.967Z,15.30
2023-04-28T09:01:52.105Z,15.30
2023-04-28T09:02:54.079Z,15.30
2023-04-28T09:03:57.294Z,15.40
2023-04-28T09:04:59.699Z,15.40
2023-04-28T09:06:02.649Z,15.40
2023-04-28T09:07:04.754Z,15.40
2023-04-28T09:08:06.812Z,15.40
2023-04-28T09:09:25.516Z,15.40
2023-04-28T09:10:27.636Z,15.40
2023-04-28T09:11:29.380Z,15.40
2023-04-28T09:12:40.170Z,15.40
2023-04-28T09:13:42.212Z,15.40
2023-04-28T09:14:44.063Z,15.40
2023-04-28T09:15:50.952Z,15.50
2023-04-28T09:16:53.172Z,15.50
2023-04-28T09:17:55.039Z,15.50
2023-04-28T09:18:59.603Z,15.50
2023-04-28T09:20:01.749Z,15.60
2023-04-28T09:21:10.313Z,15.60
2023-04-28T09:22:25.753Z,15.60
2023-04-28T09:23:28.704Z,15.60
2023-04-28T09:24:37.002Z,15.70
2023-04-28T09:25:38.731Z,15.70
2023-04-28T09:26:51.202Z,15.70
2023-04-28T09:27:53.944Z,15.70
2023-04-28T09:29:12.915Z,15.70
2023-04-28T09:30:15.389Z,15.70
2023-04-28T09:31:25.385Z,15.80
2023-04-28T09:32:28.804Z,15.80
2023-04-28T09:33:30.732Z,15.80
2023-04-28T09:34:45.841Z,15.80
2023-04-28T09:35:48.691Z,15.90
2023-04-28T09:36:50.728Z,15.90
2023-04-28T09:37:58.928Z,15.90
2023-04-28T09:39:01.759Z,15.90
2023-04-28T09:40:12.704Z,16.00
2023-04-28T09:41:14.380Z,16.00
2023-04-28T09:42:46.975Z,16.00
2023-04-28T09:43:48.762Z,16.00
2023-04-28T09:44:54.034Z,16.00
2023-04-28T09:45:59.287Z,16.10
2023-04-28T09:47:01.407Z,16.10
2023-04-28T09:48:11.062Z,16.10
2023-04-28T09:49:13.831Z,16.10
2023-04-28T09:50:17.490Z,16.10
2023-04-28T09:51:21.157Z,16.10
2023-04-28T09:52:24.688Z,16.10
2023-04-28T09:53:28.352Z,16.10
2023-04-28T09:54:31.046Z,16.20
2023-04-28T09:55:37.023Z,16.20
2023-04-28T09:56:42.519Z,16.30
2023-04-28T09:57:45.493Z,16.20
2023-04-28T09:58:50.810Z,16.30
2023-04-28T09:59:53.748Z,16.30
2023-04-28T10:00:58.394Z,16.40
2023-04-28T10:02:04.668Z,16.40
2023-04-28T10:03:15.558Z,16.50
2023-04-28T10:04:17.982Z,16.50
2023-04-28T10:05:22.847Z,16.50
2023-04-28T10:06:25.736Z,16.50
2023-04-28T10:07:28.727Z,16.60
2023-04-28T10:08:30.515Z,16.60
2023-04-28T10:09:33.270Z,16.70
2023-04-28T10:10:35.192Z,16.80
2023-04-28T10:11:37.342Z,16.80
2023-04-28T10:12:39.559Z,16.80
2023-04-28T10:13:43.312Z,16.80
2023-04-28T10:14:46.337Z,16.90
2023-04-28T10:15:51.679Z,16.90
2023-04-28T10:16:54.945Z,17.00
2023-04-28T10:17:57.490Z,17.00
2023-04-28T10:19:00.342Z,17.10
2023-04-28T10:20:03.812Z,17.10
2023-04-28T10:21:07.489Z,17.10
2023-04-28T10:22:33.602Z,17.20
2023-04-28T10:24:06.750Z,17.20
2023-04-28T10:25:14.558Z,17.20
2023-04-28T10:26:19.857Z,17.20
2023-04-28T10:27:28.078Z,17.20
2023-04-28T10:28:30.104Z,17.20
2023-04-28T10:29:36.118Z,17.20
2023-04-28T10:30:38.275Z,17.30
2023-04-28T10:32:19.644Z,17.30
2023-04-28T10:33:26.276Z,17.30
2023-04-28T10:34:30.196Z,17.30
2023-04-28T10:35:33.612Z,17.40
2023-04-28T10:36:56.101Z,17.40
2023-04-28T10:38:22.225Z,17.50
2023-04-28T10:39:24.164Z,17.60
2023-04-28T10:40:36.310Z,17.60
2023-04-28T10:41:38.494Z,17.70
2023-04-28T10:42:59.122Z,17.70
2023-04-28T10:44:00.959Z,17.80
2023-04-28T10:45:02.664Z,17.70
2023-04-28T10:46:06.499Z,17.80
2023-04-28T10:47:10.000Z,17.80
2023-04-28T10:48:11.776Z,17.80
2023-04-28T10:49:13.502Z,17.90
2023-04-28T10:50:15.466Z,18.00
2023-04-28T10:51:17.157Z,18.00
2023-04-28T10:52:48.697Z,18.00
2023-04-28T10:53:51.845Z,18.10
2023-04-28T10:55:36.687Z,18.10
2023-04-28T10:56:39.844Z,18.20
2023-04-28T10:57:43.260Z,18.20
2023-04-28T10:58:50.623Z,18.30
2023-04-28T10:59:52.724Z,18.30
2023-04-28T11:00:54.526Z,18.30
2023-04-28T11:02:16.233Z,18.30
2023-04-28T11:03:46.835Z,18.30
2023-04-28T11:05:12.204Z,18.40
2023-04-28T11:06:32.501Z,18.40
2023-04-28T11:07:34.374Z,18.40
2023-04-28T11:08:36.252Z,18.40
2023-04-28T11:09:37.989Z,18.40
2023-04-28T11:11:15.197Z,18.40
2023-04-28T11:12:17.313Z,18.50
2023-04-28T11:13:31.849Z,18.50
2023-04-28T11:14:35.594Z,18.60
2023-04-28T11:15:45.886Z,18.60
2023-04-28T11:17:08.333Z,18.70
2023-04-28T11:18:17.706Z,18.70
2023-04-28T11:19:27.167Z,18.70
2023-04-28T11:20:29.832Z,18.70
2023-04-28T11:21:32.737Z,18.70
2023-04-28T11:22:34.640Z,18.70
2023-04-28T11:23:36.738Z,18.70
2023-04-28T11:24:38.501Z,18.70
2023-04-28T11:25:59.403Z,18.70
2023-04-28T11:27:02.330Z,18.70
2023-04-28T11:28:05.582Z,18.70
2023-04-28T11:29:07.728Z,18.70
2023-04-28T11:30:22.759Z,18.80
2023-04-28T11:31:26.282Z,18.80
2023-04-28T11:32:31.644Z,19.00
2023-04-28T11:33:33.472Z,18.80
2023-04-28T11:34:36.567Z,18.80
2023-04-28T11:35:42.289Z,18.90
2023-04-28T11:36:44.406Z,18.90
2023-04-28T11:37:46.542Z,19.00
2023-04-28T11:38:49.137Z,19.10
2023-04-28T11:39:51.102Z,19.10
2023-04-28T11:40:59.245Z,19.10
2023-04-28T11:42:09.126Z,19.10
2023-04-28T11:43:11.010Z,19.10
2023-04-28T11:44:17.451Z,19.10
2023-04-28T11:45:19.276Z,19.10
2023-04-28T11:46:23.287Z,19.10
2023-04-28T11:47:33.101Z,19.00
2023-04-28T11:48:34.861Z,19.00
2023-04-28T11:49:43.499Z,19.00
2023-04-28T11:50:45.481Z,19.00
2023-04-28T11:51:49.844Z,19.10
2023-04-28T11:52:53.704Z,19.10
2023-04-28T11:53:55.807Z,19.20
2023-04-28T11:55:00.176Z,19.20
2023-04-28T11:56:08.341Z,19.20
2023-04-28T11:57:21.410Z,19.20
2023-04-28T11:58:27.908Z,19.30
2023-04-28T11:59:34.505Z,19.20
2023-04-28T12:00:36.436Z,19.30
2023-04-28T12:01:49.617Z,19.30
2023-04-28T12:02:51.833Z,19.30
2023-04-28T12:03:54.980Z,19.30
2023-04-28T12:04:57.246Z,19.30
2023-04-28T12:05:59.329Z,19.30
2023-04-28T12:07:11.861Z,19.30
2023-04-28T12:08:14.460Z,19.30
2023-04-28T12:09:25.117Z,19.20
2023-04-28T12:10:26.953Z,19.30
2023-04-28T12:11:28.649Z,19.30
2023-04-28T12:12:45.488Z,19.30
2023-04-28T12:14:06.238Z,19.30
2023-04-28T12:15:08.608Z,19.40
2023-04-28T12:16:10.995Z,19.40
2023-04-28T12:17:25.291Z,19.40
2023-04-28T12:18:27.586Z,19.50
2023-04-28T12:19:29.238Z,19.50
2023-04-28T12:20:38.482Z,19.50
2023-04-28T12:21:41.074Z,19.50
2023-04-28T12:22:48.342Z,19.50
2023-04-28T12:23:50.483Z,19.50
2023-04-28T12:25:04.803Z,19.50
2023-04-28T12:26:06.575Z,19.50
2023-04-28T12:27:21.533Z,19.50
2023-04-28T12:28:23.325Z,19.50
2023-04-28T12:29:39.784Z,19.50
2023-04-28T12:30:44.405Z,19.60
2023-04-28T12:31:53.135Z,19.60
2023-04-28T12:32:56.128Z,19.60
2023-04-28T12:33:58.069Z,19.60
2023-04-28T12:34:59.688Z,19.60
2023-04-28T12:36:01.457Z,19.60
2023-04-28T12:37:05.889Z,19.60
2023-04-28T12:38:11.514Z,19.60
2023-04-28T12:39:16.878Z,19.60
2023-04-28T12:40:19.069Z,19.60
2023-04-28T12:41:20.724Z,19.60
2023-04-28T12:42:23.582Z,19.60
2023-04-28T12:43:27.118Z,19.50
2023-04-28T12:44:36.638Z,19.50
2023-04-28T12:45:39.002Z,19.50
2023-04-28T12:46:40.861Z,19.50
2023-04-28T12:47:42.951Z,19.40
2023-04-28T12:48:44.854Z,19.40
2023-04-28T12:49:48.316Z,19.40
2023-04-28T12:50:50.191Z,19.30
2023-04-28T12:51:51.875Z,19.30
2023-04-28T12:52:53.566Z,19.30
2023-04-28T12:53:55.376Z,19.20
2023-04-28T12:54:57.016Z,19.20
2023-04-28T12:55:59.383Z,19.10
2023-04-28T12:57:01.977Z,19.00
2023-04-28T12:58:03.631Z,19.00
2023-04-28T12:59:06.064Z,19.00
2023-04-28T13:00:08.839Z,18.90
2023-04-28T13:01:10.994Z,18.90
2023-04-28T13:02:14.644Z,18.80
2023-04-28T13:03:16.412Z,18.70
2023-04-28T13:04:19.310Z,18.70
2023-04-28T13:05:21.442Z,18.60
2023-04-28T13:06:23.134Z,18.60
2023-04-28T13:07:24.886Z,18.60
2023-04-28T13:08:26.750Z,18.60
2023-04-28T13:09:29.565Z,18.60
2023-04-28T13:10:31.287Z,18.60
2023-04-28T13:11:33.053Z,18.60
2023-04-28T13:12:34.935Z,18.60
2023-04-28T13:13:38.546Z,18.60
2023-04-28T13:14:40.336Z,18.70
2023-04-28T13:15:42.217Z,18.70
2023-04-28T13:16:50.230Z,18.70
2023-04-28T13:18:11.001Z,18.70
2023-04-28T13:19:14.755Z,18.80
2023-04-28T13:20:16.449Z,18.80
2023-04-28T13:21:18.321Z,18.80
2023-04-28T13:22:21.677Z,18.90
2023-04-28T13:23:23.437Z,18.90
2023-04-28T13:24:25.080Z,18.90
2023-04-28T13:25:27.207Z,19.00
2023-04-28T13:26:28.838Z,19.00
2023-04-28T13:27:30.662Z,19.00
2023-04-28T13:28:32.492Z,19.00
2023-04-28T13:29:34.122Z,19.00
2023-04-28T13:30:35.747Z,19.00
2023-04-28T13:31:38.044Z,19.10
2023-04-28T13:32:39.932Z,19.00
2023-04-28T13:33:41.711Z,19.00
2023-04-28T13:34:43.955Z,19.00
2023-04-28T13:35:45.796Z,18.90
2023-04-28T13:36:50.745Z,18.90
2023-04-28T13:38:01.538Z,19.00
2023-04-28T13:39:03.361Z,19.00
2023-04-28T13:40:06.307Z,19.00
2023-04-28T13:41:07.994Z,19.00
2023-04-28T13:42:09.682Z,19.00
2023-04-28T13:43:11.324Z,19.00
2023-04-28T13:44:13.118Z,19.00
2023-04-28T13:45:17.416Z,19.00
2023-04-28T13:46:20.189Z,19.00
2023-04-28T13:47:21.898Z,19.00
2023-04-28T13:48:24.278Z,19.00
2023-04-28T13:49:26.246Z,19.00
2023-04-28T13:50:27.923Z,19.00
2023-04-28T13:51:29.605Z,19.00
2023-04-28T13:52:31.515Z,19.00
2023-04-28T13:53:34.170Z,18.90